createdAt,value
2023-03-26T00:01:54.323Z,62.25
2023-03-26T00:04:22.201Z,56.12
2023-03-26T00:06:50.372Z,57.68
2023-03-26T00:09:18.958Z,61.76
2023-03-26T00:11:46.868Z,66.13
2023-03-26T00:14:17.505Z,63.52
2023-03-26T00:16:47.725Z,59.26
2023-03-26T00:19:15.788Z,54.89
2023-03-26T00:21:43.711Z,59.10
2023-03-26T00:24:17.571Z,63.35
2023-03-26T00:26:48.528Z,63.66
2023-03-26T00:29:16.984Z,58.55
2023-03-26T00:31:46.666Z,56.28
2023-03-26T00:34:18.707Z,59.68
2023-03-26T00:36:47.374Z,64.62
2023-03-26T00:39:17.916Z,61.10
2023-03-26T00:41:45.765Z,57.15
2023-03-26T00:44:13.723Z,59.87
2023-03-26T00:46:42.085Z,65.67
2023-03-26T00:49:11.111Z,61.15
2023-03-26T00:51:39.490Z,56.88
2023-03-26T00:54:09.770Z,60.59
2023-03-26T00:56:38.914Z,64.96
2023-03-26T00:59:06.809Z,61.28
2023-03-26T01:01:34.560Z,57.80
2023-03-26T01:04:32.361Z,58.34
2023-03-26T01:07:21.925Z,61.75
2023-03-26T01:09:51.526Z,66.71
2023-03-26T01:12:22.537Z,60.78
2023-03-26T01:14:52.113Z,54.46
2023-03-26T01:17:19.939Z,58.16
2023-03-26T01:20:05.800Z,60.75
2023-03-26T01:22:36.847Z,67.02
2023-03-26T01:25:05.505Z,61.62
2023-03-26T01:27:41.222Z,55.57
2023-03-26T01:30:24.696Z,58.21
2023-03-26T01:33:21.781Z,63.09
2023-03-26T01:36:17.816Z,62.33
2023-03-26T01:39:21.047Z,60.06
2023-03-26T01:41:58.371Z,55.44
2023-03-26T01:44:48.165Z,59.56
2023-03-26T01:47:17.730Z,64.45
2023-03-26T01:49:45.504Z,61.25
2023-03-26T01:52:17.415Z,56.25
2023-03-26T01:54:46.691Z,59.87
2023-03-26T01:57:33.832Z,64.63
2023-03-26T02:00:28.467Z,60.78
2023-03-26T02:03:18.079Z,56.61
2023-03-26T02:06:05.101Z,61.84
2023-03-26T02:08:41.353Z,64.84
2023-03-26T02:11:19.974Z,59.34
2023-03-26T02:13:47.985Z,56.59
2023-03-26T02:16:17.474Z,60.97
2023-03-26T02:18:47.506Z,64.49
2023-03-26T02:21:22.159Z,59.05
2023-03-26T02:23:58.077Z,57.81
2023-03-26T02:26:26.104Z,62.27
2023-03-26T02:29:19.356Z,63.97
2023-03-26T02:31:48.642Z,57.80
2023-03-26T02:34:17.421Z,60.70
2023-03-26T02:36:51.396Z,64.25
2023-03-26T02:39:19.701Z,61.36
2023-03-26T02:41:53.638Z,56.14
2023-03-26T02:44:21.681Z,57.86
2023-03-26T02:47:09.865Z,62.37
2023-03-26T02:49:40.260Z,65.69
2023-03-26T02:52:08.436Z,57.22
2023-03-26T02:54:37.175Z,57.97
2023-03-26T02:57:23.622Z,62.08
2023-03-26T03:00:14.422Z,65.08
2023-03-26T03:03:09.605Z,59.18
2023-03-26T03:05:57.420Z,57.01
2023-03-26T03:08:30.970Z,60.11
2023-03-26T03:11:17.143Z,65.55
2023-03-26T03:13:48.328Z,61.41
2023-03-26T03:16:31.170Z,55.62
2023-03-26T03:19:03.161Z,59.24
2023-03-26T03:21:36.739Z,63.01
2023-03-26T03:24:05.647Z,61.06
2023-03-26T03:26:41.331Z,55.27
2023-03-26T03:29:17.443Z,58.27
2023-03-26T03:31:45.441Z,62.91
2023-03-26T03:34:25.570Z,62.13
2023-03-26T03:36:53.466Z,56.33
2023-03-26T03:39:36.143Z,59.03
2023-03-26T03:42:04.241Z,63.79
2023-03-26T03:44:32.292Z,62.46
2023-03-26T03:47:00.497Z,57.05
2023-03-26T03:49:28.255Z,58.86
2023-03-26T03:51:57.257Z,63.35
2023-03-26T03:54:33.293Z,62.10
2023-03-26T03:57:16.073Z,58.11
2023-03-26T04:00:06.969Z,62.63
2023-03-26T04:02:43.368Z,63.72
2023-03-26T04:05:12.655Z,56.64
2023-03-26T04:07:45.533Z,59.52
2023-03-26T04:10:43.937Z,64.66
2023-03-26T04:13:18.083Z,61.33
2023-03-26T04:16:03.658Z,57.39
2023-03-26T04:18:32.498Z,60.05
2023-03-26T04:21:07.410Z,65.12
2023-03-26T04:23:35.734Z,64.16
2023-03-26T04:26:18.690Z,56.79
2023-03-26T04:29:06.962Z,59.07
2023-03-26T04:31:38.443Z,63.65
2023-03-26T04:34:24.270Z,64.39
2023-03-26T04:37:03.532Z,57.62
2023-03-26T04:39:36.357Z,60.52
2023-03-26T04:42:23.151Z,64.27
2023-03-26T04:45:07.874Z,60.04
2023-03-26T04:47:37.231Z,58.20
2023-03-26T04:50:07.508Z,62.53
2023-03-26T04:52:37.241Z,64.50
2023-03-26T04:55:49.026Z,58.22
2023-03-26T04:58:33.037Z,60.98
2023-03-26T05:01:10.400Z,64.35
2023-03-26T05:03:40.889Z,61.57
2023-03-26T05:06:13.102Z,56.76
2023-03-26T05:08:41.962Z,57.36
2023-03-26T05:11:11.729Z,61.99
2023-03-26T05:13:42.932Z,66.89
2023-03-26T05:16:12.877Z,60.70
2023-03-26T05:18:55.395Z,56.76
2023-03-26T05:21:23.648Z,60.10
2023-03-26T05:23:51.614Z,65.26
2023-03-26T05:26:20.679Z,62.67
2023-03-26T05:28:48.630Z,57.41
2023-03-26T05:31:32.761Z,58.23
2023-03-26T05:34:01.065Z,64.52
2023-03-26T05:36:29.324Z,62.57
2023-03-26T05:39:08.834Z,57.93
2023-03-26T05:41:55.949Z,60.21
2023-03-26T05:44:28.769Z,64.64
2023-03-26T05:46:56.794Z,60.43
2023-03-26T05:49:26.635Z,57.34
2023-03-26T05:51:55.591Z,60.69
2023-03-26T05:54:55.741Z,64.38
2023-03-26T05:57:56.177Z,57.16
2023-03-26T06:00:43.060Z,59.07
2023-03-26T06:03:13.127Z,63.88
2023-03-26T06:06:15.607Z,61.72
2023-03-26T06:09:02.180Z,55.60
2023-03-26T06:11:32.346Z,59.76
2023-03-26T06:14:01.278Z,64.41
2023-03-26T06:16:29.277Z,60.50
2023-03-26T06:19:07.395Z,56.60
2023-03-26T06:21:55.366Z,61.89
2023-03-26T06:24:27.236Z,64.53
2023-03-26T06:27:20.726Z,55.08
2023-03-26T06:29:58.614Z,59.47
2023-03-26T06:33:01.734Z,65.07
2023-03-26T06:35:34.224Z,58.24
2023-03-26T06:38:02.231Z,59.54
2023-03-26T06:40:31.142Z,62.61
2023-03-26T06:43:17.661Z,62.78
2023-03-26T06:45:57.180Z,58.15
2023-03-26T06:48:44.822Z,59.84
2023-03-26T06:51:31.411Z,65.12
2023-03-26T06:54:18.156Z,61.29
2023-03-26T06:56:53.190Z,55.91
2023-03-26T06:59:39.993Z,60.04
2023-03-26T07:02:26.709Z,64.70
2023-03-26T07:05:14.811Z,58.52
2023-03-26T07:08:01.298Z,56.83
2023-03-26T07:10:44.204Z,59.70
2023-03-26T07:13:34.046Z,63.80
2023-03-26T07:16:22.726Z,60.33
2023-03-26T07:19:09.842Z,55.87
2023-03-26T07:21:40.678Z,57.51
2023-03-26T07:24:24.153Z,60.27
2023-03-26T07:27:16.549Z,63.07
2023-03-26T07:30:20.160Z,56.62
2023-03-26T07:33:09.411Z,58.67
2023-03-26T07:36:10.242Z,62.67
2023-03-26T07:39:03.843Z,59.97
2023-03-26T07:42:14.420Z,55.17
2023-03-26T07:45:32.865Z,59.17
2023-03-26T07:48:27.589Z,62.83
2023-03-26T07:51:18.805Z,60.20
2023-03-26T07:54:10.027Z,55.17
2023-03-26T07:56:59.008Z,57.23
2023-03-26T08:00:00.209Z,60.65
2023-03-26T08:03:17.132Z,59.99
2023-03-26T08:06:38.991Z,56.82
2023-03-26T08:09:39.788Z,60.63
2023-03-26T08:12:53.905Z,64.18
2023-03-26T08:15:32.807Z,55.33
2023-03-26T08:18:12.816Z,55.54
2023-03-26T08:20:54.427Z,59.26
2023-03-26T08:23:50.999Z,62.25
2023-03-26T08:26:44.554Z,59.09
2023-03-26T08:29:45.222Z,55.83
2023-03-26T08:32:16.639Z,60.08
2023-03-26T08:34:45.171Z,62.35
2023-03-26T08:37:13.566Z,60.25
2023-03-26T08:39:42.440Z,55.38
2023-03-26T08:42:19.313Z,57.67
2023-03-26T08:45:11.789Z,61.36
2023-03-26T08:47:45.369Z,62.84
2023-03-26T08:50:34.674Z,55.45
2023-03-26T08:53:28.246Z,56.99
2023-03-26T08:56:19.536Z,60.59
2023-03-26T08:59:11.299Z,62.37
2023-03-26T09:02:01.307Z,56.46
2023-03-26T09:04:35.285Z,58.00
2023-03-26T09:07:35.390Z,59.96
2023-03-26T09:10:05.849Z,61.30
2023-03-26T09:12:49.708Z,63.58
2023-03-26T09:15:34.779Z,54.42
2023-03-26T09:18:34.108Z,57.35
2023-03-26T09:21:28.238Z,61.30
2023-03-26T09:24:34.672Z,63.17
2023-03-26T09:27:27.955Z,56.60
2023-03-26T09:30:14.089Z,57.58
2023-03-26T09:33:01.855Z,59.51
2023-03-26T09:35:38.840Z,60.32
2023-03-26T09:38:36.867Z,60.39
2023-03-26T09:41:13.684Z,60.82
2023-03-26T09:43:44.041Z,61.19
2023-03-26T09:46:20.926Z,60.61
2023-03-26T09:49:30.978Z,60.26
2023-03-26T09:52:52.626Z,60.82
2023-03-26T09:55:49.789Z,63.10
2023-03-26T09:58:42.180Z,58.34
2023-03-26T10:01:33.928Z,53.96
2023-03-26T10:04:20.834Z,56.22
2023-03-26T10:07:01.355Z,59.06
2023-03-26T10:09:56.801Z,60.70
2023-03-26T10:12:33.608Z,61.68
2023-03-26T10:15:38.908Z,62.33
2023-03-26T10:18:32.067Z,56.86
2023-03-26T10:21:02.644Z,53.34
2023-03-26T10:23:39.385Z,54.77
2023-03-26T10:26:10.104Z,55.76
2023-03-26T10:29:12.759Z,57.66
2023-03-26T10:31:47.504Z,58.44
2023-03-26T10:34:55.303Z,57.68
2023-03-26T10:37:47.675Z,57.47
2023-03-26T10:40:36.226Z,57.75
2023-03-26T10:43:32.132Z,58.67
2023-03-26T10:46:37.209Z,63.28
2023-03-26T10:49:44.207Z,60.27
2023-03-26T10:52:18.634Z,54.54
2023-03-26T10:54:48.951Z,59.45
2023-03-26T10:57:22.448Z,62.86
2023-03-26T10:59:54.132Z,55.15
2023-03-26T11:02:38.275Z,53.93
2023-03-26T11:05:14.705Z,56.49
2023-03-26T11:07:42.412Z,58.76
2023-03-26T11:10:24.413Z,59.96
2023-03-26T11:13:16.744Z,58.97
2023-03-26T11:16:02.728Z,55.75
2023-03-26T11:18:47.249Z,56.03
2023-03-26T11:21:21.286Z,56.26
2023-03-26T11:24:05.324Z,57.49
2023-03-26T11:26:43.675Z,58.38
2023-03-26T11:29:36.642Z,59.28
2023-03-26T11:32:10.744Z,59.47
2023-03-26T11:35:02.461Z,59.46
2023-03-26T11:37:39.151Z,59.60
2023-03-26T11:40:36.983Z,59.91
2023-03-26T11:43:08.932Z,60.05
2023-03-26T11:45:42.252Z,60.26
2023-03-26T11:48:23.907Z,60.74
2023-03-26T11:51:06.083Z,60.98
2023-03-26T11:53:38.549Z,62.04
2023-03-26T11:56:06.743Z,65.46
2023-03-26T11:58:42.963Z,58.93
2023-03-26T12:01:16.325Z,55.64
2023-03-26T12:03:56.331Z,57.68
2023-03-26T12:06:27.718Z,60.29
2023-03-26T12:08:57.117Z,63.09
2023-03-26T12:11:28.469Z,62.19
2023-03-26T12:14:02.351Z,55.77
2023-03-26T12:16:30.562Z,57.22
2023-03-26T12:19:18.551Z,59.21
2023-03-26T12:21:51.723Z,61.69
2023-03-26T12:24:31.850Z,63.07
2023-03-26T12:27:22.007Z,59.97
2023-03-26T12:30:00.225Z,53.52
2023-03-26T12:32:46.478Z,54.43
2023-03-26T12:35:22.708Z,56.43
2023-03-26T12:37:51.655Z,57.98
2023-03-26T12:40:25.344Z,58.63
2023-03-26T12:44:52.875Z,56.97
2023-03-26T12:45:44.541Z,55.33
2023-03-26T12:48:15.823Z,55.36
2023-03-26T12:51:00.335Z,54.01
2023-03-26T12:53:42.385Z,53.49
2023-03-26T12:56:21.601Z,53.55
2023-03-26T12:59:09.589Z,52.40
2023-03-26T13:01:52.816Z,52.75
2023-03-26T13:04:45.129Z,51.05
2023-03-26T13:07:42.113Z,51.60
2023-03-26T13:10:41.515Z,52.58
2023-03-26T13:13:42.475Z,52.71
2023-03-26T13:16:22.841Z,52.81
2023-03-26T13:18:55.992Z,53.98
2023-03-26T13:21:49.432Z,54.68
2023-03-26T13:24:41.567Z,55.84
2023-03-26T13:27:09.288Z,56.56
2023-03-26T13:30:14.612Z,57.58
2023-03-26T13:32:59.893Z,58.10
2023-03-26T13:35:44.140Z,58.88
2023-03-26T13:38:21.024Z,59.28
2023-03-26T13:41:09.680Z,59.16
2023-03-26T13:44:02.116Z,58.40
2023-03-26T13:46:45.299Z,57.90
2023-03-26T13:49:29.444Z,57.76
2023-03-26T13:52:02.889Z,57.08
2023-03-26T13:54:37.131Z,56.56
2023-03-26T13:57:33.308Z,56.06
2023-03-26T14:00:13.761Z,56.65
2023-03-26T14:02:42.032Z,56.69
2023-03-26T14:05:35.638Z,57.09
2023-03-26T14:08:24.622Z,56.29
2023-03-26T14:10:58.708Z,56.96
2023-03-26T14:13:33.484Z,54.21
2023-03-26T14:16:13.406Z,48.79
2023-03-26T14:18:52.604Z,48.16
2023-03-26T14:21:55.870Z,46.10
2023-03-26T14:24:45.646Z,40.77
2023-03-26T14:27:50.844Z,36.23
2023-03-26T14:30:35.881Z,33.53
2023-03-26T14:33:28.123Z,32.65
2023-03-26T14:36:09.290Z,33.22
2023-03-26T14:38:47.203Z,35.93
2023-03-26T14:41:48.973Z,38.69
2023-03-26T14:44:47.685Z,41.45
2023-03-26T14:47:20.803Z,43.98
2023-03-26T14:50:08.336Z,45.79
2023-03-26T14:52:39.588Z,48.90
2023-03-26T14:55:18.634Z,50.78
2023-03-26T14:57:59.170Z,50.23
2023-03-26T15:01:03.886Z,49.39
2023-03-26T15:04:13.024Z,50.97
2023-03-26T15:07:02.832Z,52.58
2023-03-26T15:09:56.839Z,53.73
2023-03-26T15:13:11.376Z,54.85
2023-03-26T15:16:22.314Z,55.64
2023-03-26T15:18:56.682Z,56.49
2023-03-26T15:21:27.209Z,56.40
2023-03-26T15:24:03.853Z,55.47
2023-03-26T15:26:52.610Z,53.40
2023-03-26T15:29:39.195Z,47.33
2023-03-26T15:32:44.484Z,43.04
2023-03-26T15:35:49.617Z,37.52
2023-03-26T15:38:29.454Z,36.20
2023-03-26T15:41:21.371Z,38.81
2023-03-26T15:44:22.570Z,41.97
2023-03-26T15:47:02.975Z,45.09
2023-03-26T15:49:50.664Z,47.56
2023-03-26T15:52:33.324Z,50.13
2023-03-26T15:55:27.945Z,51.10
2023-03-26T15:58:01.513Z,53.70
2023-03-26T16:00:35.041Z,54.26
2023-03-26T16:03:31.023Z,55.76
2023-03-26T16:06:02.242Z,56.90
2023-03-26T16:08:47.102Z,57.43
2023-03-26T16:11:52.165Z,58.47
2023-03-26T16:14:36.116Z,57.94
2023-03-26T16:17:10.108Z,58.09
2023-03-26T16:19:41.136Z,58.50
2023-03-26T16:22:15.384Z,58.39
2023-03-26T16:24:47.613Z,59.04
2023-03-26T16:27:15.753Z,60.69
2023-03-26T16:30:13.723Z,61.48
2023-03-26T16:32:45.897Z,61.29
2023-03-26T16:35:33.293Z,65.16
2023-03-26T16:38:14.527Z,59.90
2023-03-26T16:41:15.492Z,52.30
2023-03-26T16:44:02.298Z,53.41
2023-03-26T16:46:41.754Z,56.25
2023-03-26T16:49:22.355Z,57.17
2023-03-26T16:52:14.623Z,58.91
2023-03-26T16:55:03.903Z,58.84
2023-03-26T16:58:17.225Z,60.88
2023-03-26T17:00:49.422Z,60.19
2023-03-26T17:03:45.057Z,60.88
2023-03-26T17:06:31.274Z,60.44
2023-03-26T17:09:06.150Z,60.45
2023-03-26T17:11:45.932Z,59.78
2023-03-26T17:14:31.737Z,59.27
2023-03-26T17:17:02.620Z,59.59
2023-03-26T17:19:41.912Z,59.59
2023-03-26T17:22:36.479Z,59.91
2023-03-26T17:25:37.754Z,59.95
2023-03-26T17:28:48.252Z,60.24
2023-03-26T17:31:37.733Z,60.53
2023-03-26T17:34:47.040Z,60.87
2023-03-26T17:37:24.031Z,60.61
2023-03-26T17:39:57.837Z,60.97
2023-03-26T17:42:33.286Z,61.22
2023-03-26T17:45:20.678Z,62.27
2023-03-26T17:47:58.777Z,70.32
2023-03-26T17:50:31.911Z,58.79
2023-03-26T17:53:06.165Z,51.42
2023-03-26T17:55:38.826Z,52.35
2023-03-26T17:58:22.742Z,53.61
2023-03-26T18:00:58.033Z,56.18
2023-03-26T18:03:34.298Z,56.85
2023-03-26T18:06:31.817Z,57.65
2023-03-26T18:09:11.392Z,57.52
2023-03-26T18:11:51.173Z,58.57
2023-03-26T18:14:45.341Z,59.74
2023-03-26T18:17:13.721Z,60.14
2023-03-26T18:20:03.158Z,60.29
2023-03-26T18:22:31.403Z,61.89
2023-03-26T18:25:02.274Z,70.47
2023-03-26T18:27:40.421Z,72.55
2023-03-26T18:30:18.639Z,60.55
2023-03-26T18:33:00.067Z,51.72
2023-03-26T18:35:42.340Z,51.67
2023-03-26T18:38:35.561Z,53.40
2023-03-26T18:41:11.173Z,55.43
2023-03-26T18:43:44.024Z,56.66
2023-03-26T18:46:14.600Z,56.97
2023-03-26T18:48:43.995Z,61.23
2023-03-26T18:51:12.596Z,60.95
2023-03-26T18:53:54.879Z,65.66
2023-03-26T18:56:36.223Z,69.91
2023-03-26T18:59:06.891Z,60.83
2023-03-26T19:01:37.615Z,50.85
2023-03-26T19:04:08.324Z,51.14
2023-03-26T19:06:41.012Z,53.32
2023-03-26T19:09:28.096Z,55.95
2023-03-26T19:12:18.914Z,58.46
2023-03-26T19:14:54.526Z,61.46
2023-03-26T19:17:26.572Z,69.20
2023-03-26T19:19:57.411Z,69.09
2023-03-26T19:22:26.617Z,58.94
2023-03-26T19:25:00.338Z,52.31
2023-03-26T19:27:28.993Z,54.28
2023-03-26T19:29:57.856Z,57.81
2023-03-26T19:32:34.642Z,59.58
2023-03-26T19:35:04.807Z,59.89
2023-03-26T19:37:33.315Z,68.37
2023-03-26T19:40:19.745Z,69.12
2023-03-26T19:42:49.467Z,61.76
2023-03-26T19:45:23.239Z,52.92
2023-03-26T19:48:00.492Z,52.99
2023-03-26T19:50:42.174Z,55.39
2023-03-26T19:53:28.639Z,59.27
2023-03-26T19:56:11.034Z,59.95
2023-03-26T19:58:43.000Z,61.16
2023-03-26T20:04:05.163Z,65.89
2023-03-26T20:06:42.245Z,55.04
2023-03-26T20:09:13.190Z,54.45
2023-03-26T20:11:41.680Z,57.27
2023-03-26T20:14:25.853Z,59.69
2023-03-26T20:16:54.014Z,60.95
2023-03-26T20:19:25.010Z,69.43
2023-03-26T20:21:53.096Z,67.84
2023-03-26T20:24:21.676Z,59.53
2023-03-26T20:26:49.334Z,52.41
2023-03-26T20:29:17.807Z,54.01
2023-03-26T20:31:46.247Z,56.75
2023-03-26T20:34:17.819Z,59.36
2023-03-26T20:36:46.976Z,60.91
2023-03-26T20:39:14.799Z,69.78
2023-03-26T20:41:48.410Z,67.43
2023-03-26T20:44:19.347Z,58.68
2023-03-26T20:46:49.055Z,52.53
2023-03-26T20:49:18.380Z,53.51
2023-03-26T20:51:46.658Z,55.21
2023-03-26T20:54:21.373Z,58.29
2023-03-26T20:56:49.666Z,59.74
2023-03-26T20:59:21.913Z,62.00
2023-03-26T21:01:51.078Z,70.76
2023-03-26T21:04:19.484Z,69.15
2023-03-26T21:06:48.174Z,59.78
2023-03-26T21:09:23.690Z,52.06
2023-03-26T21:12:42.354Z,53.77
2023-03-26T21:15:20.836Z,56.98
2023-03-26T21:17:52.493Z,58.63
2023-03-26T21:20:22.623Z,60.15
2023-03-26T21:23:06.620Z,68.94
2023-03-26T21:25:41.973Z,67.81
2023-03-26T21:28:42.009Z,58.50
2023-03-26T21:31:18.843Z,52.85
2023-03-26T21:33:48.262Z,56.19
2023-03-26T21:36:19.724Z,59.31
2023-03-26T21:38:50.594Z,61.74
2023-03-26T21:41:24.341Z,70.79
2023-03-26T21:43:52.223Z,68.23
2023-03-26T21:46:20.938Z,57.55
2023-03-26T21:48:49.277Z,53.89
2023-03-26T21:51:17.925Z,55.28
2023-03-26T21:53:46.558Z,59.57
2023-03-26T21:56:36.159Z,67.70
2023-03-26T21:59:51.987Z,64.80
2023-03-26T22:02:25.621Z,53.97
2023-03-26T22:05:01.582Z,54.56
2023-03-26T22:07:45.838Z,55.80
2023-03-26T22:10:13.647Z,57.94
2023-03-26T22:12:41.528Z,60.88
2023-03-26T22:15:13.760Z,71.59
2023-03-26T22:17:42.347Z,68.44
2023-03-26T22:20:14.433Z,60.01
2023-03-26T22:22:48.971Z,52.73
2023-03-26T22:25:18.270Z,54.60
2023-03-26T22:27:51.122Z,56.71
2023-03-26T22:30:20.791Z,58.90
2023-03-26T22:32:49.070Z,65.65
2023-03-26T22:35:17.061Z,71.10
2023-03-26T22:37:45.638Z,61.61
2023-03-26T22:40:13.659Z,53.92
2023-03-26T22:42:41.841Z,55.33
2023-03-26T22:45:10.761Z,60.29
2023-03-26T22:47:40.156Z,60.99
2023-03-26T22:50:09.399Z,69.65
2023-03-26T22:52:37.647Z,67.21
2023-03-26T22:55:06.018Z,59.00
2023-03-26T22:57:34.047Z,52.68
2023-03-26T23:00:09.051Z,54.33
2023-03-26T23:02:37.429Z,59.83
2023-03-26T23:05:05.545Z,60.88
2023-03-26T23:07:34.030Z,69.22
2023-03-26T23:10:02.161Z,67.45
2023-03-26T23:12:29.860Z,58.65
2023-03-26T23:14:58.343Z,52.60
2023-03-26T23:17:26.167Z,54.62
2023-03-26T23:19:54.296Z,57.60
2023-03-26T23:22:22.352Z,60.38
2023-03-26T23:24:51.448Z,68.68
2023-03-26T23:27:22.487Z,66.70
2023-03-26T23:29:50.673Z,58.06
2023-03-26T23:32:23.487Z,51.41
2023-03-26T23:34:52.994Z,53.71
2023-03-26T23:37:23.554Z,54.73
2023-03-26T23:39:52.221Z,57.67
2023-03-26T23:42:28.615Z,59.51
2023-03-26T23:44:57.695Z,61.64
2023-03-26T23:47:25.781Z,71.92
2023-03-26T23:49:53.877Z,69.86
2023-03-26T23:52:21.938Z,61.39
2023-03-26T23:54:49.905Z,52.27
2023-03-26T23:57:18.626Z,53.26
2023-03-26T23:59:46.561Z,56.09
